createdAt,value
2023-05-18T05:01:16.519Z,1.47
2023-05-18T05:02:16.437Z,3.65
2023-05-18T05:03:16.497Z,3.63
2023-05-18T05:04:16.426Z,3.39
2023-05-18T05:05:16.393Z,2.97
2023-05-18T05:06:16.408Z,3.33
2023-05-18T05:07:16.397Z,3.01
2023-05-18T05:08:16.397Z,2.55
2023-05-18T05:09:16.376Z,2.86
2023-05-18T05:10:16.354Z,3.04
2023-05-18T05:11:16.370Z,3.52
2023-05-18T05:12:16.468Z,2.74
2023-05-18T05:13:16.357Z,3.16
2023-05-18T05:14:16.374Z,2.94
2023-05-18T05:15:16.389Z,3.17
2023-05-18T05:16:16.337Z,3.16
2023-05-18T05:17:16.326Z,3.01
2023-05-18T05:18:16.336Z,2.87
2023-05-18T05:19:16.362Z,3.44
2023-05-18T05:20:16.332Z,3.12
2023-05-18T05:21:16.326Z,2.99
2023-05-18T05:22:16.405Z,2.97
2023-05-18T05:23:16.489Z,3.23
2023-05-18T05:24:16.442Z,3.33
2023-05-18T05:25:16.460Z,3.19
2023-05-18T05:26:16.501Z,2.95
2023-05-18T05:27:16.488Z,2.82
2023-05-18T05:28:16.509Z,2.78
2023-05-18T05:29:16.534Z,2.81
2023-05-18T05:30:16.531Z,2.80
2023-05-18T05:31:16.546Z,2.60
2023-05-18T05:32:16.558Z,2.93
2023-05-18T05:33:16.667Z,3.13
2023-05-18T05:34:16.618Z,2.69
2023-05-18T05:35:16.618Z,3.17
2023-05-18T05:36:16.631Z,3.14
2023-05-18T05:37:16.675Z,2.78
2023-05-18T05:38:16.654Z,2.48
2023-05-18T05:39:16.661Z,3.01
2023-05-18T05:40:16.670Z,2.74
2023-05-18T05:41:16.697Z,3.14
2023-05-18T05:42:16.765Z,2.88
2023-05-18T05:43:16.728Z,2.71
2023-05-18T05:44:16.735Z,2.90
2023-05-18T05:45:16.729Z,3.18
2023-05-18T05:46:16.771Z,3.23
2023-05-18T05:47:16.879Z,3.00
2023-05-18T05:48:16.854Z,2.81
2023-05-18T05:49:16.807Z,2.77
2023-05-18T05:50:16.821Z,2.96
2023-05-18T05:51:16.818Z,2.53
2023-05-18T05:52:16.862Z,3.25
2023-05-18T05:53:16.811Z,3.05
2023-05-18T05:54:16.814Z,3.04
2023-05-18T05:55:16.826Z,2.93
2023-05-18T05:56:16.832Z,2.73
2023-05-18T05:57:16.830Z,3.10
2023-05-18T05:58:16.826Z,3.14
2023-05-18T05:59:16.850Z,2.67
2023-05-18T06:00:16.885Z,2.85
2023-05-18T06:01:16.871Z,3.07
2023-05-18T06:02:16.921Z,3.27
2023-05-18T06:03:16.932Z,2.54
2023-05-18T06:04:16.935Z,2.59
2023-05-18T06:05:16.876Z,2.72
2023-05-18T06:06:16.913Z,3.24
2023-05-18T06:07:16.916Z,2.63
2023-05-18T06:08:16.880Z,2.61
2023-05-18T06:09:16.913Z,2.79
2023-05-18T06:10:16.988Z,2.94
2023-05-18T06:11:16.932Z,2.59
2023-05-18T06:12:16.968Z,2.74
2023-05-18T06:13:16.922Z,2.99
2023-05-18T06:14:16.938Z,2.76
2023-05-18T06:15:16.912Z,2.92
2023-05-18T06:16:16.951Z,2.94
2023-05-18T06:17:16.928Z,2.86
2023-05-18T06:18:16.984Z,2.46
2023-05-18T06:19:16.934Z,2.72
2023-05-18T06:20:16.963Z,2.81
2023-05-18T06:21:16.965Z,2.87
2023-05-18T06:22:16.941Z,2.47
2023-05-18T06:23:16.966Z,2.66
2023-05-18T06:24:16.973Z,2.90
2023-05-18T06:25:17.015Z,2.75
2023-05-18T06:26:16.961Z,2.69
2023-05-18T06:27:17.003Z,2.74
2023-05-18T06:28:16.989Z,2.92
2023-05-18T06:29:17.014Z,2.79
2023-05-18T06:30:17.010Z,2.99
2023-05-18T06:31:16.996Z,3.36
2023-05-18T06:32:16.997Z,2.67
2023-05-18T06:33:17.062Z,2.45
2023-05-18T06:34:16.966Z,2.91
2023-05-18T06:35:16.990Z,2.36
2023-05-18T06:36:17.034Z,2.40
2023-05-18T06:37:17.006Z,2.53
2023-05-18T06:38:17.005Z,2.78
2023-05-18T06:39:16.991Z,2.72
2023-05-18T06:40:17.032Z,2.52
2023-05-18T06:41:17.048Z,2.44
2023-05-18T06:42:17.034Z,2.51
2023-05-18T06:43:17.039Z,2.79
2023-05-18T06:44:17.011Z,2.54
2023-05-18T06:45:17.050Z,2.05
2023-05-18T06:46:17.062Z,2.61
2023-05-18T06:47:17.042Z,2.86
2023-05-18T06:48:17.053Z,2.64
2023-05-18T06:49:17.050Z,2.15
2023-05-18T06:50:17.049Z,2.60
2023-05-18T06:51:17.018Z,2.30
2023-05-18T06:52:17.041Z,2.39
2023-05-18T06:53:17.037Z,2.73
2023-05-18T06:54:17.061Z,2.74
2023-05-18T06:55:17.066Z,2.65
2023-05-18T06:56:17.044Z,2.85
2023-05-18T06:57:17.034Z,2.56
2023-05-18T06:58:17.057Z,2.83
2023-05-18T06:59:17.026Z,2.28
2023-05-18T07:00:17.044Z,2.77
2023-05-18T07:01:17.087Z,2.27
2023-05-18T07:02:17.046Z,2.50
2023-05-18T07:03:17.158Z,3.19
2023-05-18T07:04:17.090Z,2.58
2023-05-18T07:05:17.049Z,3.01
2023-05-18T07:06:17.067Z,2.73
2023-05-18T07:07:17.045Z,2.99
2023-05-18T07:08:17.093Z,2.79
2023-05-18T07:09:17.035Z,2.62
2023-05-18T07:10:17.041Z,2.61
2023-05-18T07:11:17.046Z,2.32
2023-05-18T07:12:17.039Z,3.02
2023-05-18T07:13:17.043Z,2.58
2023-05-18T07:14:17.063Z,2.80
2023-05-18T07:15:17.033Z,2.69
2023-05-18T07:16:17.095Z,2.49
2023-05-18T07:17:17.047Z,2.27
2023-05-18T07:18:17.047Z,2.71
2023-05-18T07:19:17.084Z,2.86
2023-05-18T07:20:17.051Z,2.36
2023-05-18T07:21:17.044Z,2.53
2023-05-18T07:22:17.051Z,2.55
2023-05-18T07:23:17.023Z,2.47
2023-05-18T07:24:17.030Z,2.36
2023-05-18T07:25:17.092Z,2.54
2023-05-18T07:26:17.029Z,2.18
2023-05-18T07:27:17.081Z,2.59
2023-05-18T07:28:17.096Z,2.89
2023-05-18T07:29:17.070Z,2.70
2023-05-18T07:30:17.088Z,2.65
2023-05-18T07:31:17.104Z,2.95
2023-05-18T07:32:17.090Z,2.04
2023-05-18T07:33:17.121Z,2.73
2023-05-18T07:34:17.095Z,2.33
2023-05-18T07:35:17.105Z,2.60
2023-05-18T07:36:17.107Z,2.52
2023-05-18T07:37:17.116Z,2.32
2023-05-18T07:38:17.103Z,2.82
2023-05-18T07:39:19.082Z,2.44
2023-05-18T07:40:17.122Z,2.17
2023-05-18T07:41:17.146Z,2.55
2023-05-18T07:42:17.147Z,2.45
2023-05-18T07:43:17.154Z,2.49
2023-05-18T07:44:17.216Z,2.44
2023-05-18T07:45:17.251Z,2.36
2023-05-18T07:46:17.243Z,2.45
2023-05-18T07:47:17.225Z,2.47
2023-05-18T07:48:17.233Z,2.55
2023-05-18T07:49:17.243Z,2.26
2023-05-18T07:50:17.300Z,2.35
2023-05-18T07:51:17.260Z,2.28
2023-05-18T07:52:17.305Z,2.24
2023-05-18T07:53:17.306Z,2.64
2023-05-18T07:54:17.292Z,2.41
2023-05-18T07:55:17.307Z,2.34
2023-05-18T07:56:17.354Z,2.44
2023-05-18T07:57:17.357Z,2.92
2023-05-18T07:58:17.411Z,2.11
2023-05-18T07:59:17.393Z,2.15
2023-05-18T08:00:17.393Z,2.46
2023-05-18T08:01:17.427Z,2.60
2023-05-18T08:02:17.475Z,2.50
2023-05-18T08:03:17.502Z,2.58
2023-05-18T08:04:17.524Z,2.27
2023-05-18T08:05:17.497Z,2.71
2023-05-18T08:06:17.501Z,2.67
2023-05-18T08:07:17.540Z,2.39
2023-05-18T08:08:17.619Z,2.50
2023-05-18T08:09:17.658Z,2.33
2023-05-18T08:10:17.755Z,2.18
2023-05-18T08:11:17.771Z,2.19
2023-05-18T08:12:17.845Z,2.39
2023-05-18T08:13:17.932Z,2.49
2023-05-18T08:14:17.895Z,2.37
2023-05-18T08:15:18.012Z,2.64
2023-05-18T08:16:18.101Z,2.19
2023-05-18T08:17:18.076Z,3.18
2023-05-18T08:18:18.147Z,2.57
2023-05-18T08:19:18.257Z,2.23
2023-05-18T08:20:18.280Z,2.88
2023-05-18T08:21:18.330Z,2.84
2023-05-18T08:22:18.393Z,2.49
2023-05-18T08:23:18.465Z,2.44
2023-05-18T08:24:18.497Z,2.57
2023-05-18T08:25:18.581Z,2.79
2023-05-18T08:26:18.616Z,3.17
2023-05-18T08:27:18.691Z,2.81
2023-05-18T08:28:18.760Z,2.54
2023-05-18T08:29:18.825Z,3.10
2023-05-18T08:30:18.922Z,2.55
2023-05-18T08:31:18.971Z,2.96
2023-05-18T08:32:19.013Z,3.22
2023-05-18T08:33:19.085Z,2.91
2023-05-18T08:34:19.130Z,2.49
2023-05-18T08:35:19.123Z,2.77
2023-05-18T08:36:19.194Z,3.03
2023-05-18T08:37:19.241Z,2.42
2023-05-18T08:38:19.296Z,2.73
2023-05-18T08:39:19.372Z,2.74
2023-05-18T08:40:19.419Z,2.90
2023-05-18T08:41:19.456Z,3.11
2023-05-18T08:42:19.506Z,2.75
2023-05-18T08:43:19.550Z,2.73
2023-05-18T08:44:19.647Z,2.62
2023-05-18T08:45:19.654Z,3.00
2023-05-18T08:46:19.702Z,2.76
2023-05-18T08:47:19.770Z,3.14
2023-05-18T08:48:19.918Z,2.75
2023-05-18T08:49:19.858Z,2.92
2023-05-18T08:50:21.126Z,3.25
2023-05-18T08:51:19.939Z,2.92
2023-05-18T08:52:19.859Z,2.90
2023-05-18T08:53:19.919Z,2.72
2023-05-18T08:54:19.888Z,3.59
2023-05-18T08:55:19.850Z,2.76
2023-05-18T08:56:19.889Z,2.87
2023-05-18T08:57:19.862Z,3.06
2023-05-18T08:58:19.860Z,3.04
2023-05-18T08:59:19.818Z,3.42
2023-05-18T09:00:20.742Z,3.34
2023-05-18T09:01:19.836Z,3.29
2023-05-18T09:02:19.823Z,3.17
2023-05-18T09:03:19.832Z,3.41
2023-05-18T09:04:19.890Z,3.05
2023-05-18T09:05:20.086Z,2.99
2023-05-18T09:06:20.663Z,3.36
2023-05-18T09:07:20.017Z,3.12
2023-05-18T09:08:20.035Z,2.73
2023-05-18T09:09:20.108Z,3.54
2023-05-18T09:10:20.235Z,2.89
2023-05-18T09:11:20.189Z,3.03
2023-05-18T09:12:21.307Z,2.95
2023-05-18T09:13:20.470Z,3.21
2023-05-18T09:14:20.463Z,3.79
2023-05-18T09:15:20.545Z,2.89
2023-05-18T09:16:20.647Z,3.17
2023-05-18T09:17:20.655Z,2.79
2023-05-18T09:18:23.070Z,2.95
2023-05-18T09:19:20.758Z,2.73
2023-05-18T09:20:20.624Z,3.36
2023-05-18T09:21:20.596Z,2.96
2023-05-18T09:22:20.639Z,3.06
2023-05-18T09:23:20.582Z,2.65
2023-05-18T09:24:21.874Z,3.27
2023-05-18T09:25:20.583Z,2.81
2023-05-18T09:26:20.549Z,3.20
2023-05-18T09:27:20.554Z,3.45
2023-05-18T09:28:20.588Z,3.20
2023-05-18T09:29:20.559Z,3.50
2023-05-18T09:30:20.568Z,2.88
2023-05-18T09:31:20.597Z,3.29
2023-05-18T09:32:20.552Z,2.77
2023-05-18T09:33:20.617Z,3.03
2023-05-18T09:34:20.517Z,3.35
2023-05-18T09:35:20.520Z,3.31
2023-05-18T09:36:20.528Z,2.90
2023-05-18T09:37:20.541Z,3.18
2023-05-18T09:38:20.496Z,3.54
2023-05-18T09:39:20.499Z,2.93
2023-05-18T09:40:20.529Z,3.05
2023-05-18T09:41:20.467Z,3.37
2023-05-18T09:42:21.719Z,3.33
2023-05-18T09:43:20.472Z,3.33
2023-05-18T09:44:20.450Z,3.32
2023-05-18T09:45:20.520Z,2.81
2023-05-18T09:46:20.571Z,2.92
2023-05-18T09:47:20.531Z,3.27
2023-05-18T09:48:22.770Z,3.34
2023-05-18T09:49:20.564Z,3.22
2023-05-18T09:50:20.583Z,2.66
2023-05-18T09:51:20.558Z,2.88
2023-05-18T09:52:20.576Z,3.03
2023-05-18T09:53:20.563Z,2.99
2023-05-18T09:54:22.398Z,3.59
2023-05-18T09:55:20.546Z,3.27
2023-05-18T09:56:20.525Z,3.32
2023-05-18T09:57:20.527Z,3.14
2023-05-18T09:58:20.501Z,3.55
2023-05-18T09:59:20.513Z,3.34
2023-05-18T10:00:21.271Z,3.26
2023-05-18T10:01:20.603Z,3.56
2023-05-18T10:02:20.504Z,3.59
2023-05-18T10:03:20.544Z,3.40
2023-05-18T10:04:20.581Z,3.45
2023-05-18T10:05:20.714Z,3.13
2023-05-18T10:06:20.589Z,3.14
2023-05-18T10:07:20.630Z,3.39
2023-05-18T10:08:20.644Z,2.84
2023-05-18T10:09:20.712Z,3.19
2023-05-18T10:10:20.889Z,3.44
2023-05-18T10:11:20.731Z,3.37
2023-05-18T10:12:20.762Z,2.89
2023-05-18T10:13:20.797Z,2.91
2023-05-18T10:14:20.802Z,3.05
2023-05-18T10:15:20.855Z,3.15
2023-05-18T10:16:20.888Z,3.16
2023-05-18T10:17:20.954Z,3.05
2023-05-18T10:18:20.930Z,2.94
2023-05-18T10:19:21.082Z,3.30
2023-05-18T10:20:21.026Z,3.34
2023-05-18T10:21:21.042Z,3.05
2023-05-18T10:22:21.032Z,3.15
2023-05-18T10:23:21.083Z,3.54
2023-05-18T10:24:21.113Z,3.75
2023-05-18T10:25:21.150Z,3.57
2023-05-18T10:26:21.151Z,3.40
2023-05-18T10:27:21.201Z,3.18
2023-05-18T10:28:21.221Z,3.36
2023-05-18T10:29:21.241Z,3.60
2023-05-18T10:30:21.266Z,3.35
2023-05-18T10:31:21.330Z,3.24
2023-05-18T10:32:21.329Z,2.87
2023-05-18T10:33:29.097Z,3.39
2023-05-18T10:34:22.335Z,3.73
2023-05-18T10:35:21.327Z,3.54
2023-05-18T10:36:21.314Z,3.20
2023-05-18T10:37:21.340Z,2.87
2023-05-18T10:38:21.341Z,2.99
2023-05-18T10:39:21.307Z,3.54
2023-05-18T10:40:21.304Z,3.42
2023-05-18T10:41:21.282Z,3.30
2023-05-18T10:42:21.273Z,3.21
2023-05-18T10:43:22.596Z,3.25
2023-05-18T10:44:21.275Z,3.28
2023-05-18T10:45:21.278Z,3.00
2023-05-18T10:46:21.357Z,3.13
2023-05-18T10:47:21.399Z,3.60
2023-05-18T10:48:21.322Z,3.05
2023-05-18T10:49:21.245Z,3.24
2023-05-18T10:50:21.232Z,3.65
2023-05-18T10:51:21.253Z,2.85
2023-05-18T10:52:21.196Z,3.35
2023-05-18T10:53:21.228Z,3.07
2023-05-18T10:54:21.220Z,3.22
2023-05-18T10:55:21.184Z,3.34
2023-05-18T10:56:21.185Z,3.11
2023-05-18T10:57:21.200Z,3.63
2023-05-18T10:58:21.172Z,3.49
2023-05-18T10:59:21.184Z,3.59
2023-05-18T11:00:21.160Z,3.19
2023-05-18T11:01:21.171Z,3.69
2023-05-18T11:02:21.137Z,3.42
2023-05-18T11:03:21.174Z,3.53
2023-05-18T11:04:21.129Z,3.35
2023-05-18T11:05:21.166Z,3.48
2023-05-18T11:06:21.151Z,3.25
2023-05-18T11:07:21.131Z,3.76
2023-05-18T11:08:21.112Z,3.43
2023-05-18T11:09:21.088Z,3.48
2023-05-18T11:10:21.061Z,3.70
2023-05-18T11:11:21.103Z,3.29
2023-05-18T11:12:21.074Z,3.22
2023-05-18T11:13:21.109Z,3.60
2023-05-18T11:14:21.097Z,3.43
2023-05-18T11:15:21.058Z,3.82
2023-05-18T11:16:21.299Z,3.42
2023-05-18T11:17:21.046Z,3.03
2023-05-18T11:18:21.043Z,3.70
2023-05-18T11:19:21.063Z,3.97
2023-05-18T11:20:21.024Z,3.45
2023-05-18T11:21:21.019Z,3.21
2023-05-18T11:22:21.056Z,3.60
2023-05-18T11:23:21.017Z,3.51
2023-05-18T11:24:20.968Z,3.24
2023-05-18T11:25:20.982Z,3.37
2023-05-18T11:26:20.969Z,3.33
2023-05-18T11:27:20.961Z,2.70
2023-05-18T11:28:20.959Z,3.30
2023-05-18T11:29:20.958Z,3.21
2023-05-18T11:30:20.964Z,3.23
2023-05-18T11:31:20.968Z,3.39
2023-05-18T11:32:29.297Z,3.13
2023-05-18T11:33:21.957Z,3.23
2023-05-18T11:34:20.914Z,3.37
2023-05-18T11:35:20.924Z,3.41
2023-05-18T11:36:20.900Z,3.38
2023-05-18T11:37:20.896Z,3.45
2023-05-18T11:38:20.892Z,3.25
2023-05-18T11:39:20.848Z,3.60
2023-05-18T11:40:20.875Z,3.07
2023-05-18T11:41:20.860Z,3.28
2023-05-18T11:42:20.876Z,3.24
2023-05-18T11:43:20.859Z,3.69
2023-05-18T11:44:20.859Z,3.51
2023-05-18T11:45:20.843Z,3.00
2023-05-18T11:46:20.810Z,3.42
2023-05-18T11:47:20.795Z,2.98
2023-05-18T11:48:20.994Z,3.13
2023-05-18T11:49:20.803Z,3.40
2023-05-18T11:50:20.804Z,3.61
2023-05-18T11:51:20.805Z,3.37
2023-05-18T11:52:20.810Z,3.69
2023-05-18T11:53:20.779Z,3.42
2023-05-18T11:54:20.779Z,3.30
2023-05-18T11:55:20.817Z,3.16
2023-05-18T11:56:20.789Z,3.60
2023-05-18T11:57:20.854Z,3.34
2023-05-18T11:58:20.845Z,3.06
2023-05-18T11:59:20.858Z,3.64
2023-05-18T12:00:20.918Z,3.14
2023-05-18T12:01:20.895Z,3.62
2023-05-18T12:02:20.974Z,3.26
2023-05-18T12:03:21.062Z,3.36
2023-05-18T12:04:21.120Z,3.11
2023-05-18T12:05:20.945Z,3.17
2023-05-18T12:06:20.961Z,3.33
2023-05-18T12:07:21.023Z,3.36
2023-05-18T12:08:21.002Z,3.21
2023-05-18T12:09:21.020Z,3.10
2023-05-18T12:10:21.134Z,2.30
2023-05-18T12:11:21.077Z,2.39
2023-05-18T12:12:21.104Z,2.75
2023-05-18T12:13:21.091Z,2.65
2023-05-18T12:14:21.128Z,2.74
2023-05-18T12:15:21.148Z,2.81
2023-05-18T12:16:21.171Z,2.36
2023-05-18T12:17:21.178Z,2.47
2023-05-18T12:18:21.249Z,2.44
2023-05-18T12:19:21.241Z,2.33
2023-05-18T12:20:21.245Z,2.26
2023-05-18T12:21:22.202Z,2.32
2023-05-18T12:22:21.256Z,2.30
2023-05-18T12:23:21.257Z,2.63
2023-05-18T12:24:21.300Z,2.02
2023-05-18T12:25:21.321Z,2.21
2023-05-18T12:26:21.371Z,2.29
2023-05-18T12:27:21.366Z,2.65
2023-05-18T12:28:21.390Z,2.47
2023-05-18T12:29:21.430Z,2.44
2023-05-18T12:30:21.500Z,2.18
2023-05-18T12:31:21.487Z,2.04
2023-05-18T12:32:21.460Z,2.26
2023-05-18T12:33:21.541Z,2.27
2023-05-18T12:34:21.550Z,1.90
2023-05-18T12:35:21.554Z,2.50
2023-05-18T12:36:21.599Z,2.15
2023-05-18T12:37:23.968Z,2.40
2023-05-18T12:38:22.610Z,2.01
2023-05-18T12:39:21.583Z,2.28
2023-05-18T12:40:21.562Z,1.65
2023-05-18T12:41:21.575Z,2.23
2023-05-18T12:42:21.556Z,2.46
2023-05-18T12:43:21.556Z,1.91
2023-05-18T12:44:21.581Z,1.81
2023-05-18T12:45:21.519Z,1.98
2023-05-18T12:46:21.546Z,1.91
2023-05-18T12:47:21.527Z,1.69
2023-05-18T12:48:21.594Z,1.91
2023-05-18T12:49:21.505Z,2.07
2023-05-18T12:50:21.531Z,1.81
2023-05-18T12:51:21.476Z,1.81
2023-05-18T12:52:21.497Z,2.13
2023-05-18T12:53:21.542Z,1.95
2023-05-18T12:54:21.557Z,1.66
2023-05-18T12:55:21.648Z,1.99
2023-05-18T12:56:21.621Z,2.09
2023-05-18T12:57:21.688Z,1.87
2023-05-18T12:58:21.711Z,1.93
2023-05-18T12:59:21.782Z,2.10
2023-05-18T13:00:21.789Z,1.72
2023-05-18T13:01:21.861Z,2.06
2023-05-18T13:02:21.923Z,1.80
2023-05-18T13:03:22.443Z,1.93
2023-05-18T13:04:22.042Z,1.97
2023-05-18T13:05:21.925Z,1.70
2023-05-18T13:06:21.977Z,1.79
2023-05-18T13:07:22.000Z,1.55
2023-05-18T13:08:22.387Z,1.61
2023-05-18T13:09:22.074Z,2.11
2023-05-18T13:10:22.188Z,1.73
2023-05-18T13:11:22.114Z,2.04
2023-05-18T13:12:22.149Z,1.62
2023-05-18T13:13:22.242Z,1.97
2023-05-18T13:14:22.243Z,1.98
2023-05-18T13:15:22.261Z,1.84
2023-05-18T13:16:22.360Z,1.76
2023-05-18T13:17:22.394Z,1.99
2023-05-18T13:18:22.351Z,1.78
2023-05-18T13:19:22.418Z,1.77
2023-05-18T13:20:22.418Z,1.40
2023-05-18T13:21:22.416Z,1.66
2023-05-18T13:22:22.458Z,1.80
2023-05-18T13:23:22.490Z,1.73
2023-05-18T13:24:22.528Z,1.68
2023-05-18T13:25:22.507Z,1.49
2023-05-18T13:26:22.579Z,2.03
2023-05-18T13:27:22.602Z,1.38
2023-05-18T13:28:22.629Z,1.57
2023-05-18T13:29:22.689Z,1.73
2023-05-18T13:30:22.761Z,1.56
2023-05-18T13:31:22.853Z,1.68
2023-05-18T13:32:22.743Z,1.96
2023-05-18T13:33:22.794Z,1.70
2023-05-18T13:34:22.832Z,1.64
2023-05-18T13:35:22.879Z,1.44
2023-05-18T13:36:22.888Z,1.40
2023-05-18T13:37:22.948Z,1.54
2023-05-18T13:38:22.996Z,2.03
2023-05-18T13:39:23.011Z,1.83
2023-05-18T13:40:23.008Z,1.67
2023-05-18T13:41:23.052Z,1.73
2023-05-18T13:42:23.083Z,1.67
2023-05-18T13:43:23.138Z,1.78
2023-05-18T13:44:23.171Z,1.75
2023-05-18T13:45:23.194Z,1.34
2023-05-18T13:46:23.292Z,1.62
2023-05-18T13:47:23.259Z,1.71
2023-05-18T13:48:23.291Z,1.68
2023-05-18T13:49:23.356Z,1.58
2023-05-18T13:50:23.436Z,1.29
2023-05-18T13:51:23.403Z,1.36
2023-05-18T13:52:23.438Z,1.47
2023-05-18T13:53:23.452Z,1.86
2023-05-18T13:54:23.516Z,1.71
2023-05-18T13:55:23.563Z,1.48
2023-05-18T13:56:23.549Z,1.79
2023-05-18T13:57:23.582Z,1.41
2023-05-18T13:58:23.603Z,1.61
2023-05-18T13:59:23.650Z,1.80
2023-05-18T14:00:23.709Z,2.02
2023-05-18T14:01:23.787Z,1.41
2023-05-18T14:02:23.796Z,1.27
2023-05-18T14:03:23.891Z,1.62
2023-05-18T14:04:23.858Z,1.58
2023-05-18T14:05:23.855Z,1.54
2023-05-18T14:06:23.897Z,1.40
2023-05-18T14:07:23.936Z,1.31
2023-05-18T14:08:23.931Z,1.56
2023-05-18T14:09:23.949Z,1.92
2023-05-18T14:10:24.101Z,1.66
2023-05-18T14:11:24.018Z,1.23
2023-05-18T14:12:24.063Z,1.67
2023-05-18T14:13:24.042Z,1.93
2023-05-18T14:14:24.119Z,1.60
2023-05-18T14:15:24.127Z,1.57
2023-05-18T14:16:24.220Z,2.26
2023-05-18T14:17:24.231Z,1.82
2023-05-18T14:18:24.222Z,1.87
2023-05-18T14:19:24.329Z,1.72
2023-05-18T14:20:24.284Z,1.68
2023-05-18T14:21:24.274Z,1.82
2023-05-18T14:22:24.304Z,1.82
2023-05-18T14:23:24.321Z,1.51
2023-05-18T14:24:24.305Z,1.78
2023-05-18T14:25:24.352Z,1.95
2023-05-18T14:26:24.366Z,1.98
2023-05-18T14:27:24.417Z,1.81
2023-05-18T14:28:24.455Z,1.53
2023-05-18T14:29:24.405Z,1.61
2023-05-18T14:30:24.493Z,2.34
2023-05-18T14:31:24.504Z,1.79
2023-05-18T14:32:24.567Z,1.82
2023-05-18T14:33:24.557Z,1.97
2023-05-18T14:34:24.560Z,1.74
2023-05-18T14:35:24.532Z,1.65
2023-05-18T14:36:24.608Z,1.69
2023-05-18T14:37:24.579Z,1.84
2023-05-18T14:38:24.588Z,1.68
2023-05-18T14:39:24.605Z,1.68
2023-05-18T14:40:24.701Z,2.22
2023-05-18T14:41:24.702Z,1.92
2023-05-18T14:42:24.711Z,2.01
2023-05-18T14:43:24.732Z,1.81
2023-05-18T14:44:24.757Z,2.06
2023-05-18T14:45:24.792Z,2.01
2023-05-18T14:46:24.816Z,1.91
2023-05-18T14:47:24.853Z,2.10
2023-05-18T14:48:24.889Z,2.20
2023-05-18T14:49:24.898Z,1.91
2023-05-18T14:50:24.972Z,1.80
2023-05-18T14:51:24.954Z,1.86
2023-05-18T14:52:24.997Z,1.71
2023-05-18T14:53:24.989Z,1.86
2023-05-18T14:54:25.049Z,2.23
2023-05-18T14:55:25.064Z,1.96
2023-05-18T14:56:25.095Z,1.83
2023-05-18T14:57:26.765Z,2.14
2023-05-18T14:58:25.124Z,2.12
2023-05-18T14:59:25.191Z,2.24
2023-05-18T15:00:25.219Z,1.98
2023-05-18T15:01:25.292Z,2.47
2023-05-18T15:02:25.311Z,2.01
2023-05-18T15:03:28.046Z,2.45
2023-05-18T15:04:25.301Z,2.12
2023-05-18T15:05:25.314Z,2.00
2023-05-18T15:06:25.273Z,2.03
2023-05-18T15:07:25.288Z,1.85
2023-05-18T15:08:25.292Z,1.91
2023-05-18T15:09:26.861Z,1.92
2023-05-18T15:10:25.928Z,2.32
2023-05-18T15:11:25.267Z,2.03
2023-05-18T15:12:25.275Z,2.29
2023-05-18T15:13:25.255Z,2.13
2023-05-18T15:14:25.215Z,1.81
2023-05-18T15:15:26.614Z,2.30
2023-05-18T15:16:25.254Z,2.13
2023-05-18T15:17:25.225Z,1.63
2023-05-18T15:18:25.206Z,2.40
2023-05-18T15:19:25.394Z,2.15
2023-05-18T15:20:25.223Z,1.78
2023-05-18T15:21:25.189Z,1.87
2023-05-18T15:22:25.208Z,1.96
2023-05-18T15:23:25.179Z,1.94
2023-05-18T15:24:25.213Z,2.17
2023-05-18T15:25:25.174Z,2.12
2023-05-18T15:26:25.187Z,2.08
2023-05-18T15:27:25.170Z,2.03
2023-05-18T15:28:25.160Z,2.00
2023-05-18T15:29:25.231Z,2.24
2023-05-18T15:30:25.234Z,2.35
2023-05-18T15:31:25.266Z,2.11
2023-05-18T15:32:26.682Z,1.96
2023-05-18T15:33:25.320Z,2.27
2023-05-18T15:34:25.279Z,1.93
2023-05-18T15:35:25.290Z,2.16
2023-05-18T15:36:25.267Z,2.00
2023-05-18T15:37:25.391Z,2.11
2023-05-18T15:38:25.719Z,2.41
2023-05-18T15:39:25.223Z,2.34
2023-05-18T15:40:25.256Z,2.14
2023-05-18T15:41:25.246Z,2.09
2023-05-18T15:42:25.207Z,2.34
2023-05-18T15:43:25.261Z,2.01
2023-05-18T15:44:25.841Z,2.29
2023-05-18T15:45:25.188Z,2.14
2023-05-18T15:46:25.299Z,2.16
2023-05-18T15:47:25.262Z,2.22
2023-05-18T15:48:25.229Z,1.83
2023-05-18T15:49:25.192Z,1.93
2023-05-18T15:50:25.182Z,1.88
2023-05-18T15:51:25.200Z,2.47
2023-05-18T15:52:25.166Z,2.34
2023-05-18T15:53:25.149Z,1.98
2023-05-18T15:54:25.193Z,2.04
2023-05-18T15:55:25.116Z,2.41
2023-05-18T15:56:25.136Z,2.57
2023-05-18T15:57:25.214Z,2.12
2023-05-18T15:58:25.142Z,2.10
2023-05-18T15:59:25.148Z,2.10
2023-05-18T16:00:25.106Z,1.84
2023-05-18T16:01:25.153Z,2.38
2023-05-18T16:02:25.999Z,2.25
2023-05-18T16:03:25.176Z,2.48
2023-05-18T16:04:25.120Z,1.86
2023-05-18T16:05:25.151Z,2.14
2023-05-18T16:06:25.177Z,2.59
2023-05-18T16:07:25.204Z,2.44
2023-05-18T16:08:25.248Z,2.53
2023-05-18T16:09:25.286Z,2.39
2023-05-18T16:10:25.246Z,2.36
2023-05-18T16:11:25.309Z,2.39
2023-05-18T16:12:25.395Z,2.60
2023-05-18T16:13:25.364Z,2.29
2023-05-18T16:14:25.445Z,2.14
2023-05-18T16:15:25.451Z,2.60
2023-05-18T16:16:25.602Z,2.63
2023-05-18T16:17:25.560Z,2.12
2023-05-18T16:18:25.551Z,2.29
2023-05-18T16:19:25.709Z,2.39
2023-05-18T16:20:25.597Z,2.74
2023-05-18T16:21:25.608Z,2.59
2023-05-18T16:22:25.627Z,2.32
2023-05-18T16:23:25.653Z,2.17
2023-05-18T16:24:25.687Z,2.18
2023-05-18T16:25:25.702Z,2.44
2023-05-18T16:26:25.731Z,2.20
2023-05-18T16:27:25.761Z,2.48
2023-05-18T16:28:25.800Z,2.46
2023-05-18T16:29:25.858Z,2.74
2023-05-18T16:30:25.822Z,2.53
2023-05-18T16:31:25.950Z,2.14
2023-05-18T16:32:25.957Z,2.41
2023-05-18T16:33:27.795Z,2.84
2023-05-18T16:34:25.940Z,2.56
2023-05-18T16:35:26.024Z,2.78
2023-05-18T16:36:26.027Z,2.25
2023-05-18T16:37:26.023Z,2.43
2023-05-18T16:38:26.067Z,3.10
2023-05-18T16:39:27.229Z,2.47
2023-05-18T16:40:26.182Z,2.71
2023-05-18T16:41:26.156Z,2.52
2023-05-18T16:42:26.196Z,2.13
2023-05-18T16:43:26.233Z,2.56
2023-05-18T16:44:26.289Z,2.80
2023-05-18T16:45:27.205Z,2.65
2023-05-18T16:46:26.376Z,2.32
2023-05-18T16:47:26.466Z,2.60
2023-05-18T16:48:26.380Z,2.41
2023-05-18T16:49:26.441Z,2.47
2023-05-18T16:50:26.557Z,2.32
2023-05-18T16:51:27.504Z,2.65
2023-05-18T16:52:26.547Z,2.50
2023-05-18T16:53:26.595Z,2.37
2023-05-18T16:54:26.586Z,2.55
2023-05-18T16:55:26.635Z,2.80
2023-05-18T16:56:26.668Z,2.63
2023-05-18T16:57:27.589Z,2.33
2023-05-18T16:58:26.711Z,2.27
2023-05-18T16:59:26.744Z,2.59
2023-05-18T17:00:26.821Z,2.87
